sensor_id;sensor_type;location;lat;lon;timestamp;P1;durP1;ratioP1;P2;durP2;ratioP2
46391;SDS011;32098;49.448;7.904;2023-08-06T00:01:34;2.00;;;1.80;;
46391;SDS011;32098;49.448;7.904;2023-08-06T00:04:00;3.03;;;1.85;;
46391;SDS011;32098;49.448;7.904;2023-08-06T00:06:27;4.07;;;1.65;;
46391;SDS011;32098;49.448;7.904;2023-08-06T00:08:53;5.05;;;2.28;;
46391;SDS011;32098;49.448;7.904;2023-08-06T00:11:21;2.78;;;2.05;;
46391;SDS011;32098;49.448;7.904;2023-08-06T00:13:47;3.75;;;1.60;;
46391;SDS011;32098;49.448;7.904;2023-08-06T00:16:14;3.25;;;2.03;;
46391;SDS011;32098;49.448;7.904;2023-08-06T00:18:40;2.88;;;1.83;;
46391;SDS011;32098;49.448;7.904;2023-08-06T00:21:08;2.92;;;1.83;;
46391;SDS011;32098;49.448;7.904;2023-08-06T00:23:35;3.85;;;2.20;;
46391;SDS011;32098;49.448;7.904;2023-08-06T00:26:01;3.75;;;2.00;;
46391;SDS011;32098;49.448;7.904;2023-08-06T00:28:28;3.25;;;1.70;;
46391;SDS011;32098;49.448;7.904;2023-08-06T00:30:54;2.50;;;1.70;;
46391;SDS011;32098;49.448;7.904;2023-08-06T00:33:22;4.25;;;1.90;;
46391;SDS011;32098;49.448;7.904;2023-08-06T00:35:49;2.65;;;1.60;;
46391;SDS011;32098;49.448;7.904;2023-08-06T00:38:16;6.10;;;1.67;;
46391;SDS011;32098;49.448;7.904;2023-08-06T00:40:42;5.43;;;1.88;;
46391;SDS011;32098;49.448;7.904;2023-08-06T00:43:09;2.28;;;1.90;;
46391;SDS011;32098;49.448;7.904;2023-08-06T00:45:36;3.13;;;1.80;;
46391;SDS011;32098;49.448;7.904;2023-08-06T00:48:04;2.63;;;1.60;;
46391;SDS011;32098;49.448;7.904;2023-08-06T00:50:32;4.03;;;1.85;;
46391;SDS011;32098;49.448;7.904;2023-08-06T00:52:59;2.17;;;1.67;;
46391;SDS011;32098;49.448;7.904;2023-08-06T00:55:26;5.50;;;2.17;;
46391;SDS011;32098;49.448;7.904;2023-08-06T00:57:53;2.38;;;1.80;;
46391;SDS011;32098;49.448;7.904;2023-08-06T01:00:22;2.20;;;1.60;;
46391;SDS011;32098;49.448;7.904;2023-08-06T01:02:51;2.85;;;1.48;;
46391;SDS011;32098;49.448;7.904;2023-08-06T01:05:18;4.40;;;2.45;;
46391;SDS011;32098;49.448;7.904;2023-08-06T01:10:29;2.72;;;1.85;;
46391;SDS011;32098;49.448;7.904;2023-08-06T01:13:24;3.75;;;1.88;;
46391;SDS011;32098;49.448;7.904;2023-08-06T01:15:59;6.88;;;1.85;;
46391;SDS011;32098;49.448;7.904;2023-08-06T01:18:27;1.50;;;1.40;;
46391;SDS011;32098;49.448;7.904;2023-08-06T01:20:54;3.53;;;1.60;;
46391;SDS011;32098;49.448;7.904;2023-08-06T01:23:21;4.82;;;1.80;;
46391;SDS011;32098;49.448;7.904;2023-08-06T01:31:26;2.13;;;1.40;;
46391;SDS011;32098;49.448;7.904;2023-08-06T01:33:56;2.85;;;1.48;;
46391;SDS011;32098;49.448;7.904;2023-08-06T01:36:25;1.98;;;1.10;;
46391;SDS011;32098;49.448;7.904;2023-08-06T01:38:53;3.83;;;1.20;;
46391;SDS011;32098;49.448;7.904;2023-08-06T01:41:20;2.10;;;1.10;;
46391;SDS011;32098;49.448;7.904;2023-08-06T01:43:46;3.58;;;1.30;;
46391;SDS011;32098;49.448;7.904;2023-08-06T01:46:13;2.80;;;1.27;;
46391;SDS011;32098;49.448;7.904;2023-08-06T01:48:40;4.72;;;1.38;;
46391;SDS011;32098;49.448;7.904;2023-08-06T01:51:06;2.40;;;1.05;;
46391;SDS011;32098;49.448;7.904;2023-08-06T01:53:33;3.38;;;1.58;;
46391;SDS011;32098;49.448;7.904;2023-08-06T01:56:00;3.22;;;1.40;;
46391;SDS011;32098;49.448;7.904;2023-08-06T01:58:27;3.38;;;1.45;;
46391;SDS011;32098;49.448;7.904;2023-08-06T02:00:53;3.33;;;1.55;;
46391;SDS011;32098;49.448;7.904;2023-08-06T02:03:20;2.78;;;1.30;;
46391;SDS011;32098;49.448;7.904;2023-08-06T02:05:47;2.97;;;1.58;;
46391;SDS011;32098;49.448;7.904;2023-08-06T02:08:14;2.67;;;1.20;;
46391;SDS011;32098;49.448;7.904;2023-08-06T02:10:40;2.70;;;1.50;;
46391;SDS011;32098;49.448;7.904;2023-08-06T02:13:08;2.35;;;1.45;;
46391;SDS011;32098;49.448;7.904;2023-08-06T02:15:34;3.65;;;1.70;;
46391;SDS011;32098;49.448;7.904;2023-08-06T02:18:01;2.97;;;1.48;;
46391;SDS011;32098;49.448;7.904;2023-08-06T02:20:28;2.70;;;1.40;;
46391;SDS011;32098;49.448;7.904;2023-08-06T02:22:54;6.20;;;1.30;;
46391;SDS011;32098;49.448;7.904;2023-08-06T02:25:21;3.53;;;1.50;;
46391;SDS011;32098;49.448;7.904;2023-08-06T02:27:47;6.15;;;1.70;;
46391;SDS011;32098;49.448;7.904;2023-08-06T02:30:14;3.85;;;1.70;;
46391;SDS011;32098;49.448;7.904;2023-08-06T02:32:40;3.35;;;1.52;;
46391;SDS011;32098;49.448;7.904;2023-08-06T02:35:07;3.20;;;1.27;;
46391;SDS011;32098;49.448;7.904;2023-08-06T02:37:34;3.00;;;1.48;;
46391;SDS011;32098;49.448;7.904;2023-08-06T02:40:01;5.40;;;1.50;;
46391;SDS011;32098;49.448;7.904;2023-08-06T02:42:28;3.08;;;2.03;;
46391;SDS011;32098;49.448;7.904;2023-08-06T02:44:55;3.53;;;1.40;;
46391;SDS011;32098;49.448;7.904;2023-08-06T02:47:22;3.05;;;1.20;;
46391;SDS011;32098;49.448;7.904;2023-08-06T02:49:49;2.95;;;1.35;;
46391;SDS011;32098;49.448;7.904;2023-08-06T02:52:15;3.42;;;1.30;;
46391;SDS011;32098;49.448;7.904;2023-08-06T02:54:43;4.28;;;1.10;;
46391;SDS011;32098;49.448;7.904;2023-08-06T02:57:11;4.47;;;1.20;;
46391;SDS011;32098;49.448;7.904;2023-08-06T02:59:38;2.95;;;1.05;;
46391;SDS011;32098;49.448;7.904;2023-08-06T03:02:14;4.13;;;0.90;;
46391;SDS011;32098;49.448;7.904;2023-08-06T03:04:50;2.65;;;0.90;;
46391;SDS011;32098;49.448;7.904;2023-08-06T03:07:20;1.08;;;0.50;;
46391;SDS011;32098;49.448;7.904;2023-08-06T03:09:54;1.63;;;0.60;;
46391;SDS011;32098;49.448;7.904;2023-08-06T03:12:21;1.75;;;0.77;;
46391;SDS011;32098;49.448;7.904;2023-08-06T03:14:48;1.38;;;0.50;;
46391;SDS011;32098;49.448;7.904;2023-08-06T03:17:15;1.30;;;0.52;;
46391;SDS011;32098;49.448;7.904;2023-08-06T03:19:42;3.03;;;0.60;;
46391;SDS011;32098;49.448;7.904;2023-08-06T03:22:09;1.55;;;0.57;;
46391;SDS011;32098;49.448;7.904;2023-08-06T03:24:37;1.15;;;0.73;;
46391;SDS011;32098;49.448;7.904;2023-08-06T03:27:04;2.13;;;0.40;;
46391;SDS011;32098;49.448;7.904;2023-08-06T03:29:31;1.13;;;0.70;;
46391;SDS011;32098;49.448;7.904;2023-08-06T03:32:00;2.35;;;0.68;;
46391;SDS011;32098;49.448;7.904;2023-08-06T03:34:27;1.10;;;0.50;;
46391;SDS011;32098;49.448;7.904;2023-08-06T03:36:53;0.82;;;0.40;;
46391;SDS011;32098;49.448;7.904;2023-08-06T03:39:20;1.42;;;0.50;;
46391;SDS011;32098;49.448;7.904;2023-08-06T03:41:47;1.17;;;0.93;;
46391;SDS011;32098;49.448;7.904;2023-08-06T03:44:14;0.60;;;0.30;;
46391;SDS011;32098;49.448;7.904;2023-08-06T03:46:41;1.85;;;0.75;;
46391;SDS011;32098;49.448;7.904;2023-08-06T03:49:08;0.85;;;0.40;;
46391;SDS011;32098;49.448;7.904;2023-08-06T03:51:34;1.85;;;0.20;;
46391;SDS011;32098;49.448;7.904;2023-08-06T03:54:01;1.92;;;0.40;;
46391;SDS011;32098;49.448;7.904;2023-08-06T03:56:29;1.17;;;0.40;;
46391;SDS011;32098;49.448;7.904;2023-08-06T03:58:55;1.02;;;0.40;;
46391;SDS011;32098;49.448;7.904;2023-08-06T04:01:23;1.77;;;0.43;;
46391;SDS011;32098;49.448;7.904;2023-08-06T04:03:49;2.45;;;0.50;;
46391;SDS011;32098;49.448;7.904;2023-08-06T04:06:16;1.42;;;0.60;;
46391;SDS011;32098;49.448;7.904;2023-08-06T04:08:43;0.40;;;0.20;;
46391;SDS011;32098;49.448;7.904;2023-08-06T04:11:09;1.73;;;0.30;;
46391;SDS011;32098;49.448;7.904;2023-08-06T04:13:36;2.08;;;0.32;;
46391;SDS011;32098;49.448;7.904;2023-08-06T04:16:02;1.58;;;0.17;;
46391;SDS011;32098;49.448;7.904;2023-08-06T04:18:31;1.58;;;0.28;;
46391;SDS011;32098;49.448;7.904;2023-08-06T04:20:57;0.73;;;0.40;;
46391;SDS011;32098;49.448;7.904;2023-08-06T04:23:24;0.65;;;0.20;;
46391;SDS011;32098;49.448;7.904;2023-08-06T04:25:57;0.70;;;0.38;;
46391;SDS011;32098;49.448;7.904;2023-08-06T04:28:27;0.73;;;0.20;;
46391;SDS011;32098;49.448;7.904;2023-08-06T04:30:54;0.73;;;0.20;;
46391;SDS011;32098;49.448;7.904;2023-08-06T04:33:21;2.55;;;0.30;;
46391;SDS011;32098;49.448;7.904;2023-08-06T04:35:50;1.48;;;0.20;;
46391;SDS011;32098;49.448;7.904;2023-08-06T04:38:22;0.50;;;0.20;;
46391;SDS011;32098;49.448;7.904;2023-08-06T04:40:51;1.10;;;0.27;;
46391;SDS011;32098;49.448;7.904;2023-08-06T04:43:18;2.38;;;0.30;;
46391;SDS011;32098;49.448;7.904;2023-08-06T04:45:46;0.70;;;0.20;;
46391;SDS011;32098;49.448;7.904;2023-08-06T04:48:13;0.68;;;0.28;;
46391;SDS011;32098;49.448;7.904;2023-08-06T04:50:44;0.80;;;0.30;;
46391;SDS011;32098;49.448;7.904;2023-08-06T04:53:14;0.97;;;0.30;;
46391;SDS011;32098;49.448;7.904;2023-08-06T04:55:41;1.37;;;0.30;;
46391;SDS011;32098;49.448;7.904;2023-08-06T04:58:09;0.30;;;0.30;;
46391;SDS011;32098;49.448;7.904;2023-08-06T05:00:36;4.43;;;0.70;;
46391;SDS011;32098;49.448;7.904;2023-08-06T05:03:03;1.75;;;0.47;;
46391;SDS011;32098;49.448;7.904;2023-08-06T05:05:30;0.87;;;0.37;;
46391;SDS011;32098;49.448;7.904;2023-08-06T05:07:56;1.85;;;0.47;;
46391;SDS011;32098;49.448;7.904;2023-08-06T05:10:27;0.13;;;0.10;;
46391;SDS011;32098;49.448;7.904;2023-08-06T05:12:54;1.13;;;0.20;;
46391;SDS011;32098;49.448;7.904;2023-08-06T05:15:21;0.80;;;0.30;;
46391;SDS011;32098;49.448;7.904;2023-08-06T05:17:47;0.55;;;0.28;;
46391;SDS011;32098;49.448;7.904;2023-08-06T05:20:14;0.63;;;0.20;;
46391;SDS011;32098;49.448;7.904;2023-08-06T05:22:41;0.10;;;0.10;;
46391;SDS011;32098;49.448;7.904;2023-08-06T05:25:08;0.57;;;0.20;;
46391;SDS011;32098;49.448;7.904;2023-08-06T05:27:35;0.65;;;0.30;;
46391;SDS011;32098;49.448;7.904;2023-08-06T05:30:01;1.03;;;0.30;;
46391;SDS011;32098;49.448;7.904;2023-08-06T05:32:28;0.45;;;0.22;;
46391;SDS011;32098;49.448;7.904;2023-08-06T05:34:55;0.70;;;0.40;;
46391;SDS011;32098;49.448;7.904;2023-08-06T05:37:21;0.80;;;0.30;;
46391;SDS011;32098;49.448;7.904;2023-08-06T05:39:48;0.70;;;0.30;;
46391;SDS011;32098;49.448;7.904;2023-08-06T05:42:15;0.50;;;0.27;;
46391;SDS011;32098;49.448;7.904;2023-08-06T05:44:41;1.00;;;0.30;;
46391;SDS011;32098;49.448;7.904;2023-08-06T05:47:08;0.43;;;0.30;;
46391;SDS011;32098;49.448;7.904;2023-08-06T05:49:34;0.77;;;0.50;;
46391;SDS011;32098;49.448;7.904;2023-08-06T05:52:01;0.93;;;0.30;;
46391;SDS011;32098;49.448;7.904;2023-08-06T05:54:29;0.37;;;0.37;;
46391;SDS011;32098;49.448;7.904;2023-08-06T05:56:55;0.70;;;0.33;;
46391;SDS011;32098;49.448;7.904;2023-08-06T05:59:22;0.77;;;0.40;;
46391;SDS011;32098;49.448;7.904;2023-08-06T06:01:48;0.65;;;0.40;;
46391;SDS011;32098;49.448;7.904;2023-08-06T06:04:15;0.93;;;0.30;;
46391;SDS011;32098;49.448;7.904;2023-08-06T06:06:41;0.30;;;0.20;;
46391;SDS011;32098;49.448;7.904;2023-08-06T06:09:08;0.85;;;0.38;;
46391;SDS011;32098;49.448;7.904;2023-08-06T06:11:34;1.73;;;0.50;;
46391;SDS011;32098;49.448;7.904;2023-08-06T06:14:01;0.87;;;0.40;;
46391;SDS011;32098;49.448;7.904;2023-08-06T06:16:27;0.40;;;0.40;;
46391;SDS011;32098;49.448;7.904;2023-08-06T06:18:54;1.67;;;0.52;;
46391;SDS011;32098;49.448;7.904;2023-08-06T06:21:21;0.52;;;0.25;;
46391;SDS011;32098;49.448;7.904;2023-08-06T06:23:47;0.77;;;0.38;;
46391;SDS011;32098;49.448;7.904;2023-08-06T06:26:14;0.85;;;0.40;;
46391;SDS011;32098;49.448;7.904;2023-08-06T06:28:41;0.50;;;0.50;;
46391;SDS011;32098;49.448;7.904;2023-08-06T06:31:07;0.20;;;0.20;;
46391;SDS011;32098;49.448;7.904;2023-08-06T06:33:34;0.47;;;0.30;;
46391;SDS011;32098;49.448;7.904;2023-08-06T06:36:00;0.22;;;0.20;;
46391;SDS011;32098;49.448;7.904;2023-08-06T06:38:29;0.30;;;0.30;;
46391;SDS011;32098;49.448;7.904;2023-08-06T06:40:56;0.40;;;0.32;;
46391;SDS011;32098;49.448;7.904;2023-08-06T06:43:23;0.28;;;0.20;;
46391;SDS011;32098;49.448;7.904;2023-08-06T06:45:53;0.40;;;0.17;;
46391;SDS011;32098;49.448;7.904;2023-08-06T06:48:21;0.65;;;0.17;;
46391;SDS011;32098;49.448;7.904;2023-08-06T06:50:48;0.50;;;0.10;;
46391;SDS011;32098;49.448;7.904;2023-08-06T06:53:14;0.85;;;0.15;;
46391;SDS011;32098;49.448;7.904;2023-08-06T06:55:41;0.30;;;0.20;;
46391;SDS011;32098;49.448;7.904;2023-08-06T06:58:08;0.40;;;0.20;;
46391;SDS011;32098;49.448;7.904;2023-08-06T07:00:38;1.75;;;0.30;;
46391;SDS011;32098;49.448;7.904;2023-08-06T07:03:05;0.17;;;0.10;;
46391;SDS011;32098;49.448;7.904;2023-08-06T07:05:32;4.47;;;0.20;;
46391;SDS011;32098;49.448;7.904;2023-08-06T07:07:58;0.40;;;0.40;;
46391;SDS011;32098;49.448;7.904;2023-08-06T07:10:25;0.88;;;0.50;;
46391;SDS011;32098;49.448;7.904;2023-08-06T07:12:52;1.00;;;0.40;;
46391;SDS011;32098;49.448;7.904;2023-08-06T07:15:18;0.55;;;0.50;;
46391;SDS011;32098;49.448;7.904;2023-08-06T07:17:45;1.75;;;0.60;;
46391;SDS011;32098;49.448;7.904;2023-08-06T07:20:11;0.63;;;0.50;;
46391;SDS011;32098;49.448;7.904;2023-08-06T07:22:38;0.70;;;0.65;;
46391;SDS011;32098;49.448;7.904;2023-08-06T07:25:05;0.65;;;0.57;;
46391;SDS011;32098;49.448;7.904;2023-08-06T07:27:32;2.15;;;1.88;;
46391;SDS011;32098;49.448;7.904;2023-08-06T07:29:58;1.00;;;1.00;;
46391;SDS011;32098;49.448;7.904;2023-08-06T07:32:25;2.15;;;0.80;;
46391;SDS011;32098;49.448;7.904;2023-08-06T07:34:52;0.80;;;0.80;;
46391;SDS011;32098;49.448;7.904;2023-08-06T07:37:23;1.33;;;0.93;;
46391;SDS011;32098;49.448;7.904;2023-08-06T07:39:49;1.23;;;0.80;;
46391;SDS011;32098;49.448;7.904;2023-08-06T07:42:16;1.90;;;0.70;;
46391;SDS011;32098;49.448;7.904;2023-08-06T07:44:42;0.85;;;0.77;;
46391;SDS011;32098;49.448;7.904;2023-08-06T07:47:09;0.70;;;0.70;;
46391;SDS011;32098;49.448;7.904;2023-08-06T07:49:35;0.52;;;0.50;;
46391;SDS011;32098;49.448;7.904;2023-08-06T07:52:02;0.50;;;0.50;;
46391;SDS011;32098;49.448;7.904;2023-08-06T07:54:29;0.95;;;0.38;;
46391;SDS011;32098;49.448;7.904;2023-08-06T07:56:55;0.70;;;0.38;;
46391;SDS011;32098;49.448;7.904;2023-08-06T07:59:22;0.38;;;0.32;;
46391;SDS011;32098;49.448;7.904;2023-08-06T08:01:48;0.30;;;0.30;;
46391;SDS011;32098;49.448;7.904;2023-08-06T08:04:16;0.20;;;0.20;;
46391;SDS011;32098;49.448;7.904;2023-08-06T08:06:42;0.32;;;0.32;;
46391;SDS011;32098;49.448;7.904;2023-08-06T08:09:09;0.43;;;0.30;;
46391;SDS011;32098;49.448;7.904;2023-08-06T08:11:35;1.65;;;0.20;;
46391;SDS011;32098;49.448;7.904;2023-08-06T08:14:02;0.70;;;0.20;;
46391;SDS011;32098;49.448;7.904;2023-08-06T08:16:29;1.17;;;0.20;;
46391;SDS011;32098;49.448;7.904;2023-08-06T08:18:56;0.75;;;0.30;;
46391;SDS011;32098;49.448;7.904;2023-08-06T08:21:22;0.73;;;0.10;;
46391;SDS011;32098;49.448;7.904;2023-08-06T08:23:50;1.25;;;0.30;;
46391;SDS011;32098;49.448;7.904;2023-08-06T08:26:17;0.60;;;0.20;;
46391;SDS011;32098;49.448;7.904;2023-08-06T08:28:44;0.55;;;0.22;;
46391;SDS011;32098;49.448;7.904;2023-08-06T08:31:11;1.00;;;0.20;;
46391;SDS011;32098;49.448;7.904;2023-08-06T08:33:38;0.20;;;0.13;;
46391;SDS011;32098;49.448;7.904;2023-08-06T08:36:04;0.20;;;0.20;;
46391;SDS011;32098;49.448;7.904;2023-08-06T08:38:31;0.20;;;0.20;;
46391;SDS011;32098;49.448;7.904;2023-08-06T08:40:57;0.38;;;0.20;;
46391;SDS011;32098;49.448;7.904;2023-08-06T08:43:24;0.73;;;0.38;;
46391;SDS011;32098;49.448;7.904;2023-08-06T08:45:51;1.45;;;0.10;;
46391;SDS011;32098;49.448;7.904;2023-08-06T08:48:18;1.27;;;0.30;;
46391;SDS011;32098;49.448;7.904;2023-08-06T08:50:46;0.30;;;0.30;;
46391;SDS011;32098;49.448;7.904;2023-08-06T08:53:15;0.10;;;0.10;;
46391;SDS011;32098;49.448;7.904;2023-08-06T08:55:43;1.02;;;0.30;;
46391;SDS011;32098;49.448;7.904;2023-08-06T08:58:15;0.30;;;0.10;;
46391;SDS011;32098;49.448;7.904;2023-08-06T09:00:42;0.32;;;0.25;;
46391;SDS011;32098;49.448;7.904;2023-08-06T09:03:11;0.40;;;0.30;;
46391;SDS011;32098;49.448;7.904;2023-08-06T09:05:39;1.40;;;0.30;;
46391;SDS011;32098;49.448;7.904;2023-08-06T09:08:11;0.57;;;0.10;;
46391;SDS011;32098;49.448;7.904;2023-08-06T09:10:43;0.28;;;0.20;;
46391;SDS011;32098;49.448;7.904;2023-08-06T09:13:09;0.10;;;0.10;;
46391;SDS011;32098;49.448;7.904;2023-08-06T09:15:38;0.35;;;0.20;;
46391;SDS011;32098;49.448;7.904;2023-08-06T09:18:11;0.10;;;0.10;;
46391;SDS011;32098;49.448;7.904;2023-08-06T09:20:38;0.20;;;0.20;;
46391;SDS011;32098;49.448;7.904;2023-08-06T09:23:09;0.40;;;0.30;;
46391;SDS011;32098;49.448;7.904;2023-08-06T09:25:39;0.13;;;0.13;;
46391;SDS011;32098;49.448;7.904;2023-08-06T09:28:09;1.40;;;0.20;;
46391;SDS011;32098;49.448;7.904;2023-08-06T09:30:35;0.75;;;0.30;;
46391;SDS011;32098;49.448;7.904;2023-08-06T09:33:03;0.25;;;0.25;;
46391;SDS011;32098;49.448;7.904;2023-08-06T09:35:34;0.47;;;0.13;;
46391;SDS011;32098;49.448;7.904;2023-08-06T09:38:07;0.20;;;0.10;;
46391;SDS011;32098;49.448;7.904;2023-08-06T09:40:36;0.17;;;0.13;;
46391;SDS011;32098;49.448;7.904;2023-08-06T09:43:04;0.75;;;0.20;;
46391;SDS011;32098;49.448;7.904;2023-08-06T09:45:35;0.13;;;0.00;;
46391;SDS011;32098;49.448;7.904;2023-08-06T09:48:03;0.90;;;0.47;;
46391;SDS011;32098;49.448;7.904;2023-08-06T09:50:32;0.17;;;0.17;;
46391;SDS011;32098;49.448;7.904;2023-08-06T09:53:05;0.17;;;0.17;;
46391;SDS011;32098;49.448;7.904;2023-08-06T09:55:33;0.20;;;0.17;;
46391;SDS011;32098;49.448;7.904;2023-08-06T09:57:59;0.30;;;0.30;;
46391;SDS011;32098;49.448;7.904;2023-08-06T10:00:26;0.20;;;0.20;;
46391;SDS011;32098;49.448;7.904;2023-08-06T10:02:54;0.20;;;0.20;;
46391;SDS011;32098;49.448;7.904;2023-08-06T10:05:25;0.22;;;0.20;;
46391;SDS011;32098;49.448;7.904;2023-08-06T10:07:53;0.45;;;0.30;;
46391;SDS011;32098;49.448;7.904;2023-08-06T10:10:22;0.35;;;0.30;;
46391;SDS011;32098;49.448;7.904;2023-08-06T10:12:50;1.75;;;0.40;;
46391;SDS011;32098;49.448;7.904;2023-08-06T10:15:22;0.20;;;0.20;;
46391;SDS011;32098;49.448;7.904;2023-08-06T10:17:52;0.13;;;0.13;;
46391;SDS011;32098;49.448;7.904;2023-08-06T10:20:22;3.40;;;3.10;;
46391;SDS011;32098;49.448;7.904;2023-08-06T10:23:02;0.47;;;0.30;;
46391;SDS011;32098;49.448;7.904;2023-08-06T10:25:30;0.32;;;0.32;;
46391;SDS011;32098;49.448;7.904;2023-08-06T10:27:58;0.30;;;0.30;;
46391;SDS011;32098;49.448;7.904;2023-08-06T10:30:29;1.38;;;0.40;;
46391;SDS011;32098;49.448;7.904;2023-08-06T10:32:59;0.40;;;0.40;;
46391;SDS011;32098;49.448;7.904;2023-08-06T10:35:27;0.60;;;0.60;;
46391;SDS011;32098;49.448;7.904;2023-08-06T10:40:43;0.82;;;0.40;;
46391;SDS011;32098;49.448;7.904;2023-08-06T10:43:27;0.88;;;0.30;;
46391;SDS011;32098;49.448;7.904;2023-08-06T10:45:54;1.67;;;0.50;;
46391;SDS011;32098;49.448;7.904;2023-08-06T10:51:01;0.75;;;0.50;;
46391;SDS011;32098;49.448;7.904;2023-08-06T10:53:28;0.70;;;0.57;;
46391;SDS011;32098;49.448;7.904;2023-08-06T10:55:59;1.38;;;0.55;;
46391;SDS011;32098;49.448;7.904;2023-08-06T10:58:33;0.98;;;0.52;;
46391;SDS011;32098;49.448;7.904;2023-08-06T11:01:00;1.00;;;0.60;;
46391;SDS011;32098;49.448;7.904;2023-08-06T11:03:27;1.92;;;0.70;;
46391;SDS011;32098;49.448;7.904;2023-08-06T11:05:54;0.93;;;0.77;;
46391;SDS011;32098;49.448;7.904;2023-08-06T11:08:27;1.15;;;0.60;;
46391;SDS011;32098;49.448;7.904;2023-08-06T11:10:55;0.93;;;0.63;;
46391;SDS011;32098;49.448;7.904;2023-08-06T11:13:33;1.15;;;0.80;;
46391;SDS011;32098;49.448;7.904;2023-08-06T11:16:00;3.38;;;0.93;;
46391;SDS011;32098;49.448;7.904;2023-08-06T11:18:26;1.52;;;0.90;;
46391;SDS011;32098;49.448;7.904;2023-08-06T11:20:53;0.98;;;0.75;;
46391;SDS011;32098;49.448;7.904;2023-08-06T11:23:20;2.40;;;0.85;;
46391;SDS011;32098;49.448;7.904;2023-08-06T11:25:46;1.58;;;1.00;;
46391;SDS011;32098;49.448;7.904;2023-08-06T11:28:13;2.22;;;0.80;;
46391;SDS011;32098;49.448;7.904;2023-08-06T11:30:39;1.83;;;0.85;;
46391;SDS011;32098;49.448;7.904;2023-08-06T11:33:06;1.70;;;0.60;;
46391;SDS011;32098;49.448;7.904;2023-08-06T11:35:35;2.03;;;0.88;;
46391;SDS011;32098;49.448;7.904;2023-08-06T11:38:03;1.38;;;0.80;;
46391;SDS011;32098;49.448;7.904;2023-08-06T11:40:31;2.50;;;1.00;;
46391;SDS011;32098;49.448;7.904;2023-08-06T11:42:58;2.00;;;0.95;;
46391;SDS011;32098;49.448;7.904;2023-08-06T11:45:25;3.95;;;1.10;;
46391;SDS011;32098;49.448;7.904;2023-08-06T11:47:52;1.80;;;0.90;;
46391;SDS011;32098;49.448;7.904;2023-08-06T11:50:23;2.50;;;1.10;;
46391;SDS011;32098;49.448;7.904;2023-08-06T11:52:57;1.77;;;1.00;;
46391;SDS011;32098;49.448;7.904;2023-08-06T11:55:25;1.38;;;0.98;;
46391;SDS011;32098;49.448;7.904;2023-08-06T11:57:52;1.65;;;0.93;;
46391;SDS011;32098;49.448;7.904;2023-08-06T12:00:19;2.55;;;0.85;;
46391;SDS011;32098;49.448;7.904;2023-08-06T12:02:49;0.75;;;0.70;;
46391;SDS011;32098;49.448;7.904;2023-08-06T12:07:53;0.88;;;0.52;;
46391;SDS011;32098;49.448;7.904;2023-08-06T12:10:22;1.02;;;0.85;;
46391;SDS011;32098;49.448;7.904;2023-08-06T12:12:50;1.42;;;0.77;;
46391;SDS011;32098;49.448;7.904;2023-08-06T12:15:17;1.17;;;0.90;;
46391;SDS011;32098;49.448;7.904;2023-08-06T12:17:44;1.52;;;0.93;;
46391;SDS011;32098;49.448;7.904;2023-08-06T12:20:11;1.08;;;0.95;;
46391;SDS011;32098;49.448;7.904;2023-08-06T12:22:38;2.38;;;1.00;;
46391;SDS011;32098;49.448;7.904;2023-08-06T12:25:06;2.33;;;1.10;;
46391;SDS011;32098;49.448;7.904;2023-08-06T12:27:35;0.93;;;0.80;;
46391;SDS011;32098;49.448;7.904;2023-08-06T12:30:02;1.58;;;0.80;;
46391;SDS011;32098;49.448;7.904;2023-08-06T12:32:30;1.15;;;0.80;;
46391;SDS011;32098;49.448;7.904;2023-08-06T12:34:57;1.95;;;0.88;;
46391;SDS011;32098;49.448;7.904;2023-08-06T12:37:24;2.63;;;1.00;;
46391;SDS011;32098;49.448;7.904;2023-08-06T12:39:51;1.15;;;0.88;;
46391;SDS011;32098;49.448;7.904;2023-08-06T12:42:18;2.05;;;0.73;;
46391;SDS011;32098;49.448;7.904;2023-08-06T12:44:44;1.17;;;0.88;;
46391;SDS011;32098;49.448;7.904;2023-08-06T12:47:11;1.00;;;0.82;;
46391;SDS011;32098;49.448;7.904;2023-08-06T12:49:37;1.67;;;0.80;;
46391;SDS011;32098;49.448;7.904;2023-08-06T12:52:04;1.50;;;0.68;;
46391;SDS011;32098;49.448;7.904;2023-08-06T12:54:33;1.60;;;0.63;;
46391;SDS011;32098;49.448;7.904;2023-08-06T12:57:05;1.10;;;0.65;;
46391;SDS011;32098;49.448;7.904;2023-08-06T12:59:32;2.00;;;0.65;;
46391;SDS011;32098;49.448;7.904;2023-08-06T13:01:59;0.73;;;0.50;;
46391;SDS011;32098;49.448;7.904;2023-08-06T13:04:26;2.35;;;0.70;;
46391;SDS011;32098;49.448;7.904;2023-08-06T13:06:54;1.63;;;0.50;;
46391;SDS011;32098;49.448;7.904;2023-08-06T13:09:21;1.52;;;0.60;;
46391;SDS011;32098;49.448;7.904;2023-08-06T13:11:47;1.27;;;0.70;;
46391;SDS011;32098;49.448;7.904;2023-08-06T13:14:16;1.35;;;0.73;;
46391;SDS011;32098;49.448;7.904;2023-08-06T13:16:43;0.70;;;0.52;;
46391;SDS011;32098;49.448;7.904;2023-08-06T13:19:11;0.63;;;0.50;;
46391;SDS011;32098;49.448;7.904;2023-08-06T13:24:16;1.13;;;0.70;;
46391;SDS011;32098;49.448;7.904;2023-08-06T13:26:42;1.42;;;0.70;;
46391;SDS011;32098;49.448;7.904;2023-08-06T13:29:09;0.70;;;0.57;;
46391;SDS011;32098;49.448;7.904;2023-08-06T13:31:37;1.20;;;0.82;;
46391;SDS011;32098;49.448;7.904;2023-08-06T13:34:04;0.90;;;0.75;;
46391;SDS011;32098;49.448;7.904;2023-08-06T13:36:31;1.40;;;0.60;;
46391;SDS011;32098;49.448;7.904;2023-08-06T13:38:57;2.05;;;0.57;;
46391;SDS011;32098;49.448;7.904;2023-08-06T13:41:24;1.83;;;0.75;;
46391;SDS011;32098;49.448;7.904;2023-08-06T13:43:50;0.70;;;0.70;;
46391;SDS011;32098;49.448;7.904;2023-08-06T13:46:17;3.58;;;0.70;;
46391;SDS011;32098;49.448;7.904;2023-08-06T13:48:46;0.90;;;0.73;;
46391;SDS011;32098;49.448;7.904;2023-08-06T13:51:14;1.55;;;0.90;;
46391;SDS011;32098;49.448;7.904;2023-08-06T13:53:40;0.80;;;0.80;;
46391;SDS011;32098;49.448;7.904;2023-08-06T13:56:08;1.90;;;1.17;;
46391;SDS011;32098;49.448;7.904;2023-08-06T13:58:37;1.02;;;0.65;;
46391;SDS011;32098;49.448;7.904;2023-08-06T14:01:04;1.02;;;0.75;;
46391;SDS011;32098;49.448;7.904;2023-08-06T14:03:30;2.13;;;0.90;;
46391;SDS011;32098;49.448;7.904;2023-08-06T14:05:57;0.70;;;0.70;;
46391;SDS011;32098;49.448;7.904;2023-08-06T14:08:24;1.80;;;1.08;;
46391;SDS011;32098;49.448;7.904;2023-08-06T14:10:51;1.35;;;0.75;;
46391;SDS011;32098;49.448;7.904;2023-08-06T14:13:18;2.03;;;0.65;;
46391;SDS011;32098;49.448;7.904;2023-08-06T14:15:45;0.65;;;0.63;;
46391;SDS011;32098;49.448;7.904;2023-08-06T14:18:14;1.30;;;1.00;;
46391;SDS011;32098;49.448;7.904;2023-08-06T14:20:41;4.50;;;0.98;;
46391;SDS011;32098;49.448;7.904;2023-08-06T14:23:08;1.00;;;0.90;;
46391;SDS011;32098;49.448;7.904;2023-08-06T14:25:35;1.77;;;1.05;;
46391;SDS011;32098;49.448;7.904;2023-08-06T14:28:02;2.35;;;1.10;;
46391;SDS011;32098;49.448;7.904;2023-08-06T14:30:29;1.08;;;0.80;;
46391;SDS011;32098;49.448;7.904;2023-08-06T14:32:55;1.77;;;1.00;;
46391;SDS011;32098;49.448;7.904;2023-08-06T14:35:27;1.80;;;0.75;;
46391;SDS011;32098;49.448;7.904;2023-08-06T14:37:54;2.33;;;1.17;;
46391;SDS011;32098;49.448;7.904;2023-08-06T14:40:21;1.35;;;1.10;;
46391;SDS011;32098;49.448;7.904;2023-08-06T14:42:47;1.08;;;0.85;;
46391;SDS011;32098;49.448;7.904;2023-08-06T14:45:14;4.57;;;1.00;;
46391;SDS011;32098;49.448;7.904;2023-08-06T14:47:40;2.78;;;1.50;;
46391;SDS011;32098;49.448;7.904;2023-08-06T14:50:07;0.57;;;0.50;;
46391;SDS011;32098;49.448;7.904;2023-08-06T14:52:34;2.05;;;0.73;;
46391;SDS011;32098;49.448;7.904;2023-08-06T14:55:01;2.17;;;1.00;;
46391;SDS011;32098;49.448;7.904;2023-08-06T14:57:30;1.05;;;0.80;;
46391;SDS011;32098;49.448;7.904;2023-08-06T14:59:57;2.20;;;0.80;;
46391;SDS011;32098;49.448;7.904;2023-08-06T15:02:23;0.95;;;0.70;;
46391;SDS011;32098;49.448;7.904;2023-08-06T15:04:52;1.63;;;0.80;;
46391;SDS011;32098;49.448;7.904;2023-08-06T15:07:18;0.80;;;0.80;;
46391;SDS011;32098;49.448;7.904;2023-08-06T15:09:44;2.15;;;1.10;;